Time;durP1;ratioP1;P1;durP2;ratioP2;P2;SDS_P1;SDS_P2;PMS_P1;PMS_P2;Temp;Humidity;BMP_temperature;BMP_pressure;BME280_temperature;BME280_humidity;BME280_pressure;Samples;Min_cycle;Max_cycle;Signal;HPM_P1;HPM_P2
2022/10/26 00:00:28;;;;;;;9.68;6.55;;;;;;;10.06;100.00;101202.56;5256701;28;20021;-64
2022/10/26 00:02:59;;;;;;;12.45;7.43;;;;;;;9.97;100.00;101190.72;5257707;28;20779;-64
2022/10/26 00:05:33;;;;;;;11.75;7.00;;;;;;;10.04;100.00;101193.81;5253301;28;20039;-64
2022/10/26 00:08:06;;;;;;;10.68;6.55;;;;;;;10.06;100.00;101191.03;5259623;28;20071;-64
2022/10/26 00:10:38;;;;;;;11.82;6.53;;;;;;;10.12;100.00;101185.28;5259410;28;20029;-64
2022/10/26 00:13:11;;;;;;;10.68;6.43;;;;;;;10.08;100.00;101179.31;5256722;28;20478;-64
2022/10/26 00:15:42;;;;;;;12.68;6.53;;;;;;;10.12;100.00;101174.63;5258091;28;20020;-64
2022/10/26 00:18:13;;;;;;;8.90;6.55;;;;;;;10.13;100.00;101173.66;5258836;28;20274;-64
2022/10/26 00:20:45;;;;;;;10.45;6.55;;;;;;;10.15;100.00;101175.25;5253983;28;20565;-64
2022/10/26 00:23:16;;;;;;;12.07;6.50;;;;;;;10.15;100.00;101175.25;5258799;28;20067;-64
2022/10/26 00:25:55;;;;;;;11.68;6.38;;;;;;;10.22;100.00;101173.03;5257409;28;20032;-64
2022/10/26 00:28:26;;;;;;;12.40;6.53;;;;;;;10.21;100.00;101163.31;5255485;28;20033;-64
2022/10/26 00:31:02;;;;;;;10.85;6.50;;;;;;;10.24;100.00;101154.25;5253889;28;20656;-64
2022/10/26 00:33:34;;;;;;;15.00;7.30;;;;;;;10.20;100.00;101148.25;5255041;28;20144;-64
2022/10/26 00:36:08;;;;;;;14.13;6.85;;;;;;;10.28;100.00;101140.59;5252514;28;20096;-64
2022/10/26 00:38:44;;;;;;;12.52;6.25;;;;;;;10.31;100.00;101145.72;5258562;28;20109;-64
2022/10/26 00:41:25;;;;;;;9.30;6.28;;;;;;;10.32;100.00;101170.59;5252273;28;20107;-64
2022/10/26 00:43:56;;;;;;;10.25;5.78;;;;;;;10.39;100.00;101170.06;5258832;28;20017;-64
2022/10/26 00:46:36;;;;;;;12.73;7.00;;;;;;;10.37;100.00;101165.78;5257704;28;20522;-65
2022/10/26 00:49:12;;;;;;;11.85;6.25;;;;;;;10.33;100.00;101167.81;5248293;28;20116;-64
2022/10/26 00:51:49;;;;;;;10.00;6.70;;;;;;;10.41;100.00;101164.59;5249942;28;20041;-64
2022/10/26 00:54:20;;;;;;;9.88;6.55;;;;;;;10.42;100.00;101165.47;5257374;28;20037;-64
2022/10/26 00:56:54;;;;;;;12.65;6.43;;;;;;;10.45;100.00;101165.25;5256422;28;20458;-64
2022/10/26 00:59:25;;;;;;;9.00;5.93;;;;;;;10.40;100.00;101162.91;5258039;28;20025;-64
2022/10/26 01:01:56;;;;;;;10.93;6.15;;;;;;;10.43;100.00;101148.50;5256991;28;20382;-64
2022/10/26 01:04:28;;;;;;;12.18;6.15;;;;;;;10.42;100.00;101149.47;5257323;28;20269;-64
2022/10/26 01:07:03;;;;;;;10.80;5.78;;;;;;;10.50;100.00;101147.94;5251839;28;20033;-64
2022/10/26 01:09:35;;;;;;;10.77;5.70;;;;;;;10.46;100.00;101140.28;5254736;28;20033;-64
2022/10/26 01:12:06;;;;;;;10.05;5.97;;;;;;;10.51;100.00;101140.81;5257610;28;20032;-64
2022/10/26 01:14:38;;;;;;;11.32;6.47;;;;;;;10.48;100.00;101143.69;5257668;28;20086;-64
2022/10/26 01:17:18;;;;;;;8.63;6.25;;;;;;;10.55;100.00;101139.63;5254964;28;20020;-66
2022/10/26 01:20:17;;;;;;;9.60;6.25;;;;;;;10.53;100.00;101130.88;5252090;28;20025;-64
2022/10/26 01:23:13;;;;;;;10.90;6.28;;;;;;;10.54;100.00;101132.56;5247077;28;20076;-64
2022/10/26 01:25:50;;;;;;;9.82;6.32;;;;;;;10.53;100.00;101126.41;5257808;28;20020;-64
2022/10/26 01:28:58;;;;;;;11.60;6.32;;;;;;;10.63;100.00;101115.91;5252296;28;20069;-64
2022/10/26 01:31:44;;;;;;;9.80;5.88;;;;;;;10.61;100.00;101120.50;5249338;28;20278;-64
2022/10/26 01:34:45;;;;;;;9.85;6.30;;;;;;;10.60;100.00;101118.78;5242195;28;20040;-64
2022/10/26 01:37:26;;;;;;;10.77;6.22;;;;;;;10.62;100.00;101119.53;5249161;28;20072;-64
2022/10/26 01:40:06;;;;;;;8.80;6.03;;;;;;;10.57;100.00;101114.53;5257386;28;20029;-64
2022/10/26 01:42:43;;;;;;;12.65;6.25;;;;;;;10.63;100.00;101117.72;5255798;28;21011;-64
2022/10/26 01:45:15;;;;;;;8.75;6.60;;;;;;;10.52;100.00;101114.00;5256016;28;20035;-64
2022/10/26 01:47:47;;;;;;;9.88;5.90;;;;;;;10.67;100.00;101114.72;5255743;28;20074;-64
2022/10/26 01:50:19;;;;;;;13.68;7.63;;;;;;;10.61;100.00;101115.16;5253796;28;20712;-64
2022/10/26 01:52:51;;;;;;;11.18;6.82;;;;;;;10.56;100.00;101111.97;5256966;28;20032;-64
2022/10/26 01:55:52;;;;;;;11.77;7.15;;;;;;;10.59;100.00;101109.09;5256627;28;20028;-64
2022/10/26 01:58:41;;;;;;;13.13;6.47;;;;;;;10.59;100.00;101101.09;5242389;28;20044;-64
2022/10/26 02:01:27;;;;;;;10.77;6.78;;;;;;;10.57;100.00;101109.19;5256978;28;20032;-64
2022/10/26 02:04:24;;;;;;;10.45;6.85;;;;;;;10.55;100.00;101107.63;5252581;28;20033;-64
2022/10/26 02:07:26;;;;;;;13.85;7.20;;;;;;;10.58;100.00;101105.59;5256076;28;20021;-64
2022/10/26 02:10:18;;;;;;;11.80;6.97;;;;;;;10.56;100.00;101086.13;5245225;28;20045;-64
2022/10/26 02:13:12;;;;;;;13.13;8.15;;;;;;;10.54;100.00;101085.41;5254379;28;20052;-64
2022/10/26 02:15:50;;;;;;;12.90;7.43;;;;;;;10.52;100.00;101090.00;5254627;28;20033;-64
2022/10/26 02:18:24;;;;;;;11.45;7.43;;;;;;;10.64;100.00;101085.56;5248824;28;20077;-64
2022/10/26 02:21:02;;;;;;;11.30;7.07;;;;;;;10.51;100.00;101080.31;5246561;28;20428;-64
2022/10/26 02:23:38;;;;;;;10.18;6.25;;;;;;;10.58;100.00;101078.91;5256072;28;20051;-64
2022/10/26 02:26:12;;;;;;;10.43;6.57;;;;;;;10.61;100.00;101087.66;5243831;28;20029;-64
2022/10/26 02:28:49;;;;;;;11.82;6.82;;;;;;;10.64;100.00;101082.91;5253006;28;20025;-64
2022/10/26 02:31:23;;;;;;;11.25;6.60;;;;;;;10.58;100.00;101084.25;5256090;28;20991;-64
2022/10/26 02:34:00;;;;;;;10.60;6.07;;;;;;;10.66;100.00;101078.34;5243377;28;20037;-65
2022/10/26 02:36:35;;;;;;;10.63;6.10;;;;;;;10.64;100.00;101076.72;5247222;28;20148;-64
2022/10/26 02:39:09;;;;;;;11.68;6.70;;;;;;;10.58;100.00;101075.34;5255502;28;20033;-64
2022/10/26 02:41:42;;;;;;;9.25;5.53;;;;;;;10.63;100.00;101065.22;5252902;28;20029;-64
2022/10/26 02:44:22;;;;;;;11.00;5.38;;;;;;;10.72;100.00;101075.22;5252771;28;20021;-64
2022/10/26 02:46:55;;;;;;;10.25;5.20;;;;;;;10.68;100.00;101068.41;5255833;28;20041;-65
2022/10/26 02:49:27;;;;;;;10.55;5.53;;;;;;;10.65;100.00;101060.63;5248345;28;20032;-65
2022/10/26 02:52:10;;;;;;;10.02;5.15;;;;;;;10.73;100.00;101071.56;5256533;28;20250;-64
2022/10/26 02:55:04;;;;;;;8.63;4.93;;;;;;;10.66;100.00;101067.66;5255513;28;20046;-64
2022/10/26 02:57:40;;;;;;;7.90;5.03;;;;;;;10.67;100.00;101057.84;5250772;28;20087;-64
2022/10/26 03:00:15;;;;;;;10.00;5.00;;;;;;;10.61;100.00;101064.47;5255155;28;20031;-65
2022/10/26 03:02:53;;;;;;;8.85;4.57;;;;;;;10.68;100.00;101059.53;5252492;28;20021;-64
2022/10/26 03:05:27;;;;;;;7.55;4.55;;;;;;;10.67;100.00;101061.34;5252083;28;20581;-64
2022/10/26 03:08:00;;;;;;;9.02;4.47;;;;;;;10.63;100.00;101065.22;5254120;28;20029;-65
2022/10/26 03:10:32;;;;;;;10.70;4.68;;;;;;;10.64;100.00;101061.56;5256232;28;20132;-64
2022/10/26 03:13:03;;;;;;;11.30;4.80;;;;;;;10.75;100.00;101061.63;5253697;28;20025;-65
2022/10/26 03:15:34;;;;;;;10.30;4.63;;;;;;;10.75;100.00;101060.78;5258787;28;20027;-64
2022/10/26 03:18:06;;;;;;;7.95;4.30;;;;;;;10.75;100.00;101064.28;5259885;28;20021;-64
2022/10/26 03:20:38;;;;;;;6.78;4.40;;;;;;;10.72;100.00;101059.19;5259943;28;20020;-64
2022/10/26 03:23:09;;;;;;;8.13;4.05;;;;;;;10.74;100.00;101061.75;5254356;28;20025;-64
2022/10/26 03:25:41;;;;;;;8.88;4.07;;;;;;;10.75;100.00;101056.28;5254662;28;20421;-64
2022/10/26 03:28:13;;;;;;;8.82;4.38;;;;;;;10.70;100.00;101055.78;5260014;28;20096;-64
2022/10/26 03:30:44;;;;;;;9.05;4.10;;;;;;;10.68;100.00;101055.06;5259531;28;20017;-65
2022/10/26 03:33:15;;;;;;;10.85;4.50;;;;;;;10.66;100.00;101058.78;5258885;28;20083;-64
2022/10/26 03:35:53;;;;;;;7.28;4.07;;;;;;;10.73;100.00;101049.38;5258902;28;20052;-64
2022/10/26 03:38:24;;;;;;;7.85;3.70;;;;;;;10.73;100.00;101044.03;5248205;28;20033;-64
2022/10/26 03:40:56;;;;;;;7.30;3.83;;;;;;;10.76;100.00;101051.81;5260198;28;20490;-64
2022/10/26 03:43:27;;;;;;;7.05;4.10;;;;;;;10.72;100.00;101051.19;5247678;28;20137;-64
2022/10/26 03:45:58;;;;;;;8.95;4.38;;;;;;;10.73;100.00;101042.22;5252578;28;20033;-64
2022/10/26 03:48:29;;;;;;;9.05;3.60;;;;;;;10.76;100.00;101047.34;5258152;28;20468;-64
2022/10/26 03:51:01;;;;;;;7.10;3.78;;;;;;;10.76;100.00;101049.16;5257166;28;20056;-64
2022/10/26 03:53:32;;;;;;;10.30;3.72;;;;;;;10.68;100.00;101046.19;5260101;28;20160;-64
2022/10/26 03:56:03;;;;;;;10.57;4.55;;;;;;;10.66;100.00;101049.00;5250087;28;20021;-64
2022/10/26 03:58:35;;;;;;;9.43;3.85;;;;;;;10.65;100.00;101041.94;5258599;28;20387;-64
2022/10/26 04:01:06;;;;;;;8.13;3.92;;;;;;;10.68;100.00;101035.50;5259255;28;20278;-64
2022/10/26 04:03:37;;;;;;;10.57;5.05;;;;;;;10.68;100.00;101044.38;5256948;28;20059;-64
2022/10/26 04:06:09;;;;;;;7.68;3.58;;;;;;;10.67;100.00;101042.66;5258807;28;20028;-64
2022/10/26 04:08:40;;;;;;;8.70;3.50;;;;;;;10.69;100.00;101046.06;5254583;28;20028;-65
2022/10/26 04:11:11;;;;;;;7.90;3.78;;;;;;;10.68;100.00;101051.50;5255746;28;20021;-64
2022/10/26 04:13:42;;;;;;;5.93;3.63;;;;;;;10.75;100.00;101047.44;5258362;28;20498;-64
2022/10/26 04:16:14;;;;;;;8.40;3.78;;;;;;;10.72;100.00;101053.00;5250115;28;20471;-64
2022/10/26 04:18:45;;;;;;;10.07;3.72;;;;;;;10.73;100.00;101052.03;5255507;28;20064;-64
2022/10/26 04:21:16;;;;;;;7.70;3.53;;;;;;;10.74;100.00;101053.75;5253112;28;20029;-64
2022/10/26 04:23:48;;;;;;;7.80;3.50;;;;;;;10.76;100.00;101044.66;5258697;28;20091;-64
2022/10/26 04:26:19;;;;;;;11.57;3.50;;;;;;;10.88;100.00;101047.38;5255662;28;20025;-64
2022/10/26 04:28:50;;;;;;;7.07;3.60;;;;;;;10.77;100.00;101043.69;5258792;28;20033;-65
2022/10/26 04:31:22;;;;;;;10.48;3.75;;;;;;;10.81;100.00;101044.31;5252727;28;20075;-64
2022/10/26 04:33:53;;;;;;;10.18;3.42;;;;;;;10.80;100.00;101039.94;5257292;28;20539;-64
2022/10/26 04:36:24;;;;;;;6.85;3.05;;;;;;;10.93;100.00;101043.41;5247171;28;20061;-64
2022/10/26 04:38:55;;;;;;;8.50;3.40;;;;;;;10.95;100.00;101038.81;5253087;28;20030;-64
2022/10/26 04:41:27;;;;;;;11.13;4.03;;;;;;;10.93;100.00;101037.19;5242537;28;20025;-64
2022/10/26 04:43:58;;;;;;;11.18;3.30;;;;;;;11.01;100.00;101025.94;5251411;28;20029;-64
2022/10/26 04:46:29;;;;;;;7.85;3.53;;;;;;;10.97;100.00;101028.84;5257385;28;20035;-65
2022/10/26 04:49:01;;;;;;;6.18;3.10;;;;;;;10.95;100.00;101035.28;5258264;28;20493;-64
2022/10/26 04:51:32;;;;;;;10.82;3.75;;;;;;;10.97;100.00;101038.69;5256865;28;20087;-64
2022/10/26 04:54:03;;;;;;;6.20;3.03;;;;;;;11.03;100.00;101042.72;5251419;28;20037;-64
2022/10/26 04:56:34;;;;;;;9.00;3.05;;;;;;;11.06;100.00;101034.47;5254999;28;20028;-64
2022/10/26 04:59:06;;;;;;;11.70;3.83;;;;;;;11.08;100.00;101045.88;5250854;28;20134;-64
2022/10/26 05:01:37;;;;;;;9.02;3.58;;;;;;;11.12;100.00;101050.88;5253727;28;20506;-64
2022/10/26 05:04:08;;;;;;;8.35;3.38;;;;;;;11.22;100.00;101047.50;5249713;28;20075;-64
2022/10/26 05:06:40;;;;;;;7.65;3.20;;;;;;;11.11;100.00;101045.66;5257102;28;20025;-65
2022/10/26 05:09:11;;;;;;;7.50;3.40;;;;;;;11.12;100.00;101048.22;5257232;28;20175;-64
2022/10/26 05:11:42;;;;;;;7.22;3.22;;;;;;;11.10;100.00;101044.81;5252961;28;20031;-64
2022/10/26 05:14:13;;;;;;;8.57;3.40;;;;;;;11.18;100.00;101047.75;5258075;28;20025;-64
2022/10/26 05:16:45;;;;;;;8.98;3.72;;;;;;;11.19;100.00;101048.59;5250086;28;20029;-64
2022/10/26 05:19:16;;;;;;;7.05;3.33;;;;;;;11.28;100.00;101052.41;5256836;28;20017;-64
2022/10/26 05:21:47;;;;;;;8.25;3.28;;;;;;;11.30;100.00;101045.13;5256545;28;20105;-64
2022/10/26 05:24:19;;;;;;;6.22;3.10;;;;;;;11.28;100.00;101052.41;5256287;28;20410;-64
2022/10/26 05:26:50;;;;;;;6.93;3.42;;;;;;;11.27;100.00;101053.34;5251705;28;20032;-64
2022/10/26 05:29:21;;;;;;;7.38;3.22;;;;;;;11.25;100.00;101049.94;5256652;28;20375;-65
2022/10/26 05:31:52;;;;;;;7.68;3.88;;;;;;;11.33;100.00;101051.09;5255742;28;20418;-65
2022/10/26 05:34:24;;;;;;;7.30;3.40;;;;;;;11.37;100.00;101062.34;5257200;28;20371;-64
2022/10/26 05:36:55;;;;;;;8.02;3.30;;;;;;;11.25;100.00;101048.13;5253640;28;20430;-64
2022/10/26 05:39:26;;;;;;;7.38;3.53;;;;;;;11.31;100.00;101058.38;5257068;28;20100;-65
2022/10/26 05:41:58;;;;;;;6.63;3.40;;;;;;;11.33;100.00;101051.09;5253156;28;20036;-64
2022/10/26 05:44:29;;;;;;;9.25;3.55;;;;;;;11.25;100.00;101056.13;5251300;28;20033;-64
2022/10/26 05:47:00;;;;;;;8.88;4.00;;;;;;;11.25;100.00;101061.47;5256226;28;20056;-64
2022/10/26 05:49:31;;;;;;;9.43;3.38;;;;;;;11.32;100.00;101060.03;5253381;28;20051;-64
2022/10/26 05:52:03;;;;;;;9.93;3.75;;;;;;;11.27;100.00;101061.38;5256935;28;20031;-65
2022/10/26 05:54:34;;;;;;;8.55;4.38;;;;;;;11.34;100.00;101062.59;5256130;28;20021;-64
2022/10/26 05:57:10;;;;;;;8.50;4.47;;;;;;;11.42;100.00;101062.88;5255629;28;20890;-64
2022/10/26 05:59:42;;;;;;;10.43;3.97;;;;;;;11.37;100.00;101070.38;5255239;28;20064;-64
2022/10/26 06:02:37;;;;;;;7.45;3.13;;;;;;;11.40;100.00;101064.81;5255781;28;20443;-64
2022/10/26 06:05:10;;;;;;;11.40;3.60;;;;;;;11.42;100.00;101072.72;5255696;28;20116;-64
2022/10/26 06:07:41;;;;;;;9.38;4.00;;;;;;;11.49;100.00;101073.94;5255743;28;20039;-64
2022/10/26 06:10:13;;;;;;;6.97;3.03;;;;;;;11.43;100.00;101077.94;5256532;28;20029;-65
2022/10/26 06:12:45;;;;;;;8.30;3.33;;;;;;;11.45;100.00;101088.47;5256007;28;20467;-65
2022/10/26 06:15:20;;;;;;;7.28;3.30;;;;;;;11.44;100.00;101090.31;5252500;28;20028;-65
2022/10/26 06:18:15;;;;;;;9.95;3.28;;;;;;;11.41;100.00;101087.03;5256125;28;20033;-65
2022/10/26 06:21:22;;;;;;;7.82;3.13;;;;;;;11.46;100.00;101088.38;5255439;28;20025;-64
2022/10/26 06:24:20;;;;;;;10.23;3.90;;;;;;;11.43;100.00;101077.94;5215644;28;20041;-65
2022/10/26 06:27:09;;;;;;;7.78;3.28;;;;;;;11.40;100.00;101083.50;5253057;28;20600;-64
2022/10/26 06:29:54;;;;;;;9.60;3.42;;;;;;;11.41;100.00;101085.22;5250827;28;20383;-64
2022/10/26 06:32:26;;;;;;;8.27;3.33;;;;;;;11.30;100.00;101082.50;5247699;28;20033;-64
2022/10/26 06:35:23;;;;;;;10.27;3.90;;;;;;;11.32;100.00;101076.06;5256158;28;20020;-64
2022/10/26 06:37:58;;;;;;;7.82;3.30;;;;;;;11.37;100.00;101076.59;5251482;28;20032;-64
2022/10/26 06:40:35;;;;;;;6.95;3.10;;;;;;;11.21;100.00;101072.53;5246163;28;20138;-64
2022/10/26 06:43:29;;;;;;;12.32;4.07;;;;;;;11.28;100.00;101061.25;5256167;28;20025;-64
2022/10/26 06:46:22;;;;;;;9.40;3.33;;;;;;;11.23;100.00;101059.91;5255999;28;20025;-64
2022/10/26 06:49:04;;;;;;;8.35;3.40;;;;;;;11.30;100.00;101061.16;5249307;28;20040;-64
2022/10/26 06:51:49;;;;;;;10.55;3.78;;;;;;;11.35;100.00;101069.63;5260592;28;20056;-64
2022/10/26 06:54:48;;;;;;;8.23;4.30;;;;;;;11.33;100.00;101071.56;5259674;28;20379;-64
2022/10/26 06:57:21;;;;;;;9.00;4.45;;;;;;;11.27;100.00;101069.38;5244730;28;20064;-64
2022/10/26 06:59:59;;;;;;;11.95;4.97;;;;;;;11.30;100.00;101071.81;5252623;28;20517;-65
2022/10/26 07:02:30;;;;;;;9.80;3.75;;;;;;;11.33;100.00;101072.44;5239239;28;20079;-64
2022/10/26 07:05:02;;;;;;;9.75;3.92;;;;;;;11.37;100.00;101075.72;5257169;28;20036;-65
2022/10/26 07:07:38;;;;;;;9.65;4.30;;;;;;;11.42;100.00;101078.91;5257299;28;20082;-64
2022/10/26 07:10:11;;;;;;;9.15;3.63;;;;;;;11.44;100.00;101081.44;5260358;28;20031;-64
2022/10/26 07:12:43;;;;;;;7.18;4.07;;;;;;;11.40;100.00;101094.19;5260234;28;20031;-64
2022/10/26 07:15:14;;;;;;;8.02;3.50;;;;;;;11.38;100.00;101090.78;5258901;28;20020;-64
2022/10/26 07:17:47;;;;;;;6.22;3.60;;;;;;;11.33;100.00;101092.94;5258948;28;20028;-64
2022/10/26 07:20:20;;;;;;;8.52;4.20;;;;;;;11.37;100.00;101102.44;5259383;28;20025;-64
2022/10/26 07:22:52;;;;;;;6.97;3.15;;;;;;;11.38;100.00;101099.66;5255232;28;20022;-64
2022/10/26 07:25:25;;;;;;;8.68;3.67;;;;;;;11.44;100.00;101106.34;5255689;28;20465;-64
2022/10/26 07:28:00;;;;;;;8.48;3.58;;;;;;;11.42;100.00;101110.97;5260441;28;20032;-64
2022/10/26 07:30:32;;;;;;;6.90;3.65;;;;;;;11.44;100.00;101122.38;5257307;28;20090;-64
2022/10/26 07:33:06;;;;;;;10.73;3.80;;;;;;;11.40;100.00;101114.72;5242683;28;20487;-64
2022/10/26 07:35:38;;;;;;;6.90;3.45;;;;;;;11.45;100.00;101118.75;5257000;28;20016;-65
2022/10/26 07:38:12;;;;;;;8.85;4.00;;;;;;;11.43;100.00;101118.00;5250801;28;20479;-64
2022/10/26 07:40:43;;;;;;;9.40;3.90;;;;;;;11.58;100.00;101119.53;5257504;28;20429;-64
2022/10/26 07:43:15;;;;;;;8.02;3.33;;;;;;;11.57;100.00;101124.97;5256155;28;20021;-65
2022/10/26 07:45:49;;;;;;;7.15;3.33;;;;;;;11.56;100.00;101128.59;5259933;28;20020;-64
2022/10/26 07:48:20;;;;;;;7.38;3.55;;;;;;;11.67;100.00;101143.84;5251166;28;20040;-64
2022/10/26 07:50:51;;;;;;;9.10;4.05;;;;;;;11.77;100.00;101152.84;5254225;28;20057;-64
2022/10/26 07:53:22;;;;;;;8.93;3.15;;;;;;;11.85;100.00;101141.56;5256188;28;20132;-64
2022/10/26 07:55:55;;;;;;;5.63;3.50;;;;;;;11.84;100.00;101153.25;5256794;28;20029;-64
2022/10/26 07:58:27;;;;;;;6.95;3.20;;;;;;;11.88;100.00;101147.53;5256733;28;20020;-64
2022/10/26 08:01:08;;;;;;;6.80;2.90;;;;;;;11.96;100.00;101150.47;5258995;28;20470;-64
2022/10/26 08:03:40;;;;;;;6.00;3.30;;;;;;;11.89;100.00;101156.38;5256207;28;20028;-64
2022/10/26 08:06:12;;;;;;;6.57;2.90;;;;;;;11.96;100.00;101152.31;5259760;28;20056;-64
2022/10/26 08:08:43;;;;;;;6.43;2.90;;;;;;;12.08;100.00;101156.72;5259175;28;20091;-64
2022/10/26 08:11:15;;;;;;;8.10;3.03;;;;;;;12.09;100.00;101160.25;5258004;28;20099;-64
2022/10/26 08:13:50;;;;;;;9.68;2.85;;;;;;;12.19;100.00;101169.25;5257586;28;20656;-64
2022/10/26 08:16:22;;;;;;;5.43;2.92;;;;;;;12.26;100.00;101162.44;5257805;28;20029;-64
2022/10/26 08:18:53;;;;;;;7.28;3.15;;;;;;;12.30;100.00;101161.22;5252754;28;20819;-64
2022/10/26 08:21:24;;;;;;;6.95;3.10;;;;;;;12.42;100.00;101158.56;5258437;28;20490;-64
2022/10/26 08:23:56;;;;;;;10.60;3.60;;;;;;;12.42;100.00;101167.44;5253433;28;20021;-64
2022/10/26 08:26:27;;;;;;;8.18;3.33;;;;;;;12.53;100.00;101171.94;5254990;28;20021;-64
2022/10/26 08:28:59;;;;;;;6.10;3.10;;;;;;;12.55;100.00;101173.50;5258396;28;20391;-64
2022/10/26 08:31:30;;;;;;;9.75;2.85;;;;;;;12.69;100.00;101175.06;5258159;28;20399;-64
2022/10/26 08:34:03;;;;;;;5.95;3.25;;;;;;;12.72;100.00;101174.84;5253114;28;20123;-65
2022/10/26 08:36:34;;;;;;;7.68;3.10;;;;;;;12.78;100.00;101175.34;5258353;28;20017;-64
2022/10/26 08:39:05;;;;;;;6.45;3.00;;;;;;;12.77;100.00;101174.50;5258365;28;20529;-65
2022/10/26 08:41:42;;;;;;;6.60;3.00;;;;;;;12.93;100.00;101177.63;5258060;28;20107;-65
2022/10/26 08:44:38;;;;;;;5.60;2.50;;;;;;;12.89;100.00;101180.69;5258437;28;20063;-64
2022/10/26 08:47:17;;;;;;;6.53;2.63;;;;;;;13.21;100.00;101191.44;5248154;28;20449;-65
2022/10/26 08:49:59;;;;;;;9.05;3.25;;;;;;;13.08;100.00;101186.25;5245956;28;20045;-65
2022/10/26 08:52:50;;;;;;;8.05;2.90;;;;;;;13.16;100.00;101176.72;5257653;28;20076;-64
2022/10/26 08:55:27;;;;;;;7.35;2.92;;;;;;;13.33;100.00;101169.03;5258742;28;20032;-65
2022/10/26 08:58:03;;;;;;;7.15;2.70;;;;;;;13.37;100.00;101156.22;5249713;28;20064;-64
2022/10/26 09:00:34;;;;;;;7.30;3.10;;;;;;;13.41;100.00;101144.25;5256473;28;20028;-65
2022/10/26 09:03:14;;;;;;;6.50;2.53;;;;;;;13.60;100.00;101159.66;5257099;28;20079;-65
2022/10/26 09:06:06;;;;;;;6.95;2.67;;;;;;;13.58;100.00;101163.44;5258313;28;20540;-65
2022/10/26 09:08:52;;;;;;;7.32;2.15;;;;;;;13.63;100.00;101169.25;5257150;28;20104;-65
2022/10/26 09:11:51;;;;;;;7.57;2.60;;;;;;;13.74;100.00;101179.94;5253862;28;20104;-65
2022/10/26 09:14:42;;;;;;;7.13;2.22;;;;;;;13.83;100.00;101194.41;5250199;28;20036;-64
2022/10/26 09:17:39;;;;;;;7.65;2.60;;;;;;;13.79;100.00;101201.84;5253793;28;20053;-64
2022/10/26 09:20:45;;;;;;;5.93;2.95;;;;;;;13.84;100.00;101196.94;5242959;28;20108;-64
2022/10/26 09:23:37;;;;;;;7.00;2.47;;;;;;;14.02;100.00;101213.31;5253742;28;20037;-65
2022/10/26 09:26:35;;;;;;;7.55;2.60;;;;;;;14.13;100.00;101217.75;5256107;28;20425;-65
2022/10/26 09:29:12;;;;;;;5.60;2.25;;;;;;;14.17;100.00;101229.94;5254492;28;20060;-64
2022/10/26 09:31:49;;;;;;;7.57;2.63;;;;;;;14.38;100.00;101227.25;5256826;28;20055;-65
2022/10/26 09:34:38;;;;;;;6.40;2.80;;;;;;;14.37;100.00;101235.41;5238532;28;20029;-65
2022/10/26 09:37:18;;;;;;;7.03;2.70;;;;;;;14.47;100.00;101245.22;5256926;28;20037;-65
2022/10/26 09:40:38;;;;;;;6.00;2.67;;;;;;;14.59;100.00;101245.16;5254932;28;20752;-65
2022/10/26 09:43:14;;;;;;;6.65;3.00;;;;;;;14.75;100.00;101250.06;5199012;28;20039;-65
2022/10/26 09:45:49;;;;;;;6.13;2.20;;;;;;;14.82;100.00;101245.84;5247644;28;20071;-65
2022/10/26 09:48:34;;;;;;;4.78;2.53;;;;;;;14.87;100.00;101248.97;5252230;28;20116;-64
2022/10/26 09:51:05;;;;;;;7.07;2.80;;;;;;;14.90;100.00;101246.03;5251836;28;20127;-64
2022/10/26 09:53:37;;;;;;;7.20;2.22;;;;;;;14.93;100.00;101255.66;5257287;28;20027;-64
2022/10/26 09:56:11;;;;;;;5.63;2.45;;;;;;;14.94;100.00;101260.88;5256066;28;20444;-64
2022/10/26 09:58:48;;;;;;;5.72;2.60;;;;;;;15.01;100.00;101259.34;5256487;28;20479;-65
2022/10/26 10:01:26;;;;;;;4.78;2.25;;;;;;;15.00;100.00;101273.78;5256291;28;20151;-65
2022/10/26 10:04:12;;;;;;;7.85;2.17;;;;;;;15.09;100.00;101267.59;5255938;28;20040;-64
2022/10/26 10:06:45;;;;;;;6.65;2.50;;;;;;;15.04;100.00;101269.81;5249456;28;20031;-65
2022/10/26 10:09:19;;;;;;;5.30;2.22;;;;;;;15.10;100.00;101277.34;5256130;28;20036;-64
2022/10/26 10:11:57;;;;;;;5.90;2.67;;;;;;;15.15;100.00;101268.00;5256379;28;20036;-65
2022/10/26 10:14:38;;;;;;;6.18;2.40;;;;;;;15.20;100.00;101279.22;5256029;28;20564;-65
2022/10/26 10:17:29;;;;;;;7.15;2.53;;;;;;;15.22;100.00;101282.63;5253267;28;20284;-65
2022/10/26 10:20:11;;;;;;;6.95;2.60;;;;;;;15.25;100.00;101293.94;5245580;28;20060;-65
2022/10/26 10:23:00;;;;;;;9.15;3.13;;;;;;;15.36;100.00;101301.06;5254906;28;20025;-65
2022/10/26 10:25:35;;;;;;;9.52;2.58;;;;;;;15.35;100.00;101310.09;5248505;28;20082;-65
2022/10/26 10:28:24;;;;;;;5.57;2.20;;;;;;;15.39;100.00;101319.59;5250953;28;20031;-67
2022/10/26 10:31:02;;;;;;;8.13;2.55;;;;;;;15.46;100.00;101318.06;5256537;28;20041;-65
2022/10/26 10:33:44;;;;;;;6.63;2.40;;;;;;;15.53;100.00;101312.13;5252969;28;20017;-65
2022/10/26 10:36:19;;;;;;;6.05;2.40;;;;;;;15.57;100.00;101322.50;5253815;28;20033;-65
2022/10/26 10:38:52;;;;;;;8.55;2.53;;;;;;;15.65;100.00;101330.69;5247287;28;20067;-65
2022/10/26 10:41:30;;;;;;;6.28;2.58;;;;;;;15.58;100.00;101332.25;5256153;28;20108;-65
2022/10/26 10:44:18;;;;;;;7.07;2.50;;;;;;;15.78;100.00;101333.19;5257022;28;20087;-67
2022/10/26 10:46:50;;;;;;;7.28;2.50;;;;;;;15.72;100.00;101338.22;5251611;28;20033;-65
2022/10/26 10:49:26;;;;;;;5.30;2.28;;;;;;;15.71;100.00;101339.22;5256248;28;20033;-65
2022/10/26 10:51:58;;;;;;;6.15;2.50;;;;;;;15.73;100.00;101343.50;5248354;28;20453;-65
2022/10/26 10:54:36;;;;;;;7.15;2.65;;;;;;;15.80;100.00;101346.47;5253319;28;20107;-65
2022/10/26 10:57:22;;;;;;;6.28;2.45;;;;;;;15.90;100.00;101347.34;5249290;28;20749;-65
2022/10/26 10:59:58;;;;;;;7.65;2.35;;;;;;;15.91;100.00;101354.41;5251410;28;21619;-65
2022/10/26 11:02:35;;;;;;;6.18;2.25;;;;;;;16.07;100.00;101359.28;5248517;28;20565;-65
2022/10/26 11:05:39;;;;;;;6.30;2.17;;;;;;;16.15;100.00;101356.72;5253986;28;20521;-65
2022/10/26 11:08:36;;;;;;;4.57;2.35;;;;;;;16.17;100.00;101359.28;5225764;28;20033;-65
2022/10/26 11:11:19;;;;;;;6.45;2.40;;;;;;;16.29;100.00;101357.28;5250432;28;20045;-65
2022/10/26 11:13:54;;;;;;;6.25;2.20;;;;;;;16.27;100.00;101360.94;5254942;28;20021;-65
2022/10/26 11:16:32;;;;;;;6.10;2.00;;;;;;;16.34;100.00;101360.38;5255358;28;20252;-65
2022/10/26 11:19:17;;;;;;;6.68;2.10;;;;;;;16.40;100.00;101376.84;5256033;28;20391;-65
2022/10/26 11:21:53;;;;;;;7.47;1.92;;;;;;;16.52;100.00;101380.22;5249825;28;20024;-65
2022/10/26 11:25:03;;;;;;;5.85;1.83;;;;;;;16.58;100.00;101387.72;5255611;28;20020;-64
2022/10/26 11:27:41;;;;;;;4.80;1.77;;;;;;;16.64;100.00;101389.00;5180731;28;20030;-65
2022/10/26 11:30:19;;;;;;;4.57;1.83;;;;;;;16.83;100.00;101382.75;5243679;28;20171;-66
2022/10/26 11:33:11;;;;;;;4.95;1.70;;;;;;;16.91;100.00;101390.97;5260575;28;20063;-65
2022/10/26 11:35:56;;;;;;;3.90;1.80;;;;;;;16.96;100.00;101394.06;5255140;28;20382;-66
2022/10/26 11:38:37;;;;;;;4.75;1.65;;;;;;;17.00;100.00;101390.09;5250147;28;20025;-64
2022/10/26 11:41:25;;;;;;;5.32;1.70;;;;;;;16.99;100.00;101390.22;5259878;28;20025;-65
2022/10/26 11:44:10;;;;;;;5.22;1.80;;;;;;;16.97;100.00;101390.41;5250908;28;20288;-66
2022/10/26 11:46:48;;;;;;;;;;;;;;;17.03;100.00;101391.66;5256208;28;20031;-66
2022/10/26 11:49:26;;;;;;;5.40;1.73;;;;;;;16.99;100.00;101393.81;5255946;28;19916;-66
2022/10/26 11:52:16;;;;;;;4.50;1.63;;;;;;;16.99;100.00;101399.19;5258074;28;20041;-66
2022/10/26 11:55:03;;;;;;;5.25;1.80;;;;;;;17.02;100.00;101388.09;5250307;28;20654;-66
2022/10/26 11:57:36;;;;;;;4.47;1.70;;;;;;;17.00;100.00;101395.47;5255528;28;20051;-66
2022/10/26 12:00:15;;;;;;;5.65;1.50;;;;;;;16.99;100.00;101395.63;5258712;28;20021;-66